sensor_id;sensor_type;location;lat;lon;timestamp;pressure;altitude;pressure_sealevel;temperature
79488;BMP180;68949;53.176;18.088;2023-05-10T00:00:48;100965.20;;;
79488;BMP180;68949;53.176;18.088;2023-05-10T00:03:15;100968.20;;;
79488;BMP180;68949;53.176;18.088;2023-05-10T00:05:42;100967.60;;;
79488;BMP180;68949;53.176;18.088;2023-05-10T00:08:08;100964.20;;;
79488;BMP180;68949;53.176;18.088;2023-05-10T00:10:35;100963.40;;;
79488;BMP180;68949;53.176;18.088;2023-05-10T00:13:03;100961.60;;;
79488;BMP180;68949;53.176;18.088;2023-05-10T00:15:30;100969.60;;;
79488;BMP180;68949;53.176;18.088;2023-05-10T00:17:57;100969.00;;;
79488;BMP180;68949;53.176;18.088;2023-05-10T00:20:24;100963.40;;;
79488;BMP180;68949;53.176;18.088;2023-05-10T00:22:51;100960.40;;;
79488;BMP180;68949;53.176;18.088;2023-05-10T00:25:17;100951.60;;;
79488;BMP180;68949;53.176;18.088;2023-05-10T00:27:44;100957.00;;;
79488;BMP180;68949;53.176;18.088;2023-05-10T00:30:11;100951.80;;;
79488;BMP180;68949;53.176;18.088;2023-05-10T00:32:38;100948.40;;;
79488;BMP180;68949;53.176;18.088;2023-05-10T00:35:05;100945.60;;;
79488;BMP180;68949;53.176;18.088;2023-05-10T00:37:32;100942.80;;;
79488;BMP180;68949;53.176;18.088;2023-05-10T00:39:59;100941.60;;;
79488;BMP180;68949;53.176;18.088;2023-05-10T00:42:27;100943.00;;;
79488;BMP180;68949;53.176;18.088;2023-05-10T00:44:54;100944.20;;;
79488;BMP180;68949;53.176;18.088;2023-05-10T00:47:21;100944.00;;;
79488;BMP180;68949;53.176;18.088;2023-05-10T00:49:48;100942.40;;;
79488;BMP180;68949;53.176;18.088;2023-05-10T00:52:15;100945.60;;;
79488;BMP180;68949;53.176;18.088;2023-05-10T00:54:42;100939.20;;;
79488;BMP180;68949;53.176;18.088;2023-05-10T00:57:09;100939.00;;;
79488;BMP180;68949;53.176;18.088;2023-05-10T00:59:36;100936.00;;;
79488;BMP180;68949;53.176;18.088;2023-05-10T01:02:03;100929.80;;;
79488;BMP180;68949;53.176;18.088;2023-05-10T01:04:30;100925.00;;;
79488;BMP180;68949;53.176;18.088;2023-05-10T01:06:57;100924.20;;;
79488;BMP180;68949;53.176;18.088;2023-05-10T01:09:25;100925.80;;;
79488;BMP180;68949;53.176;18.088;2023-05-10T01:11:54;100922.20;;;
79488;BMP180;68949;53.176;18.088;2023-05-10T01:14:22;100923.00;;;
79488;BMP180;68949;53.176;18.088;2023-05-10T01:16:50;100923.20;;;
79488;BMP180;68949;53.176;18.088;2023-05-10T01:19:28;100924.20;;;
79488;BMP180;68949;53.176;18.088;2023-05-10T01:22:59;100931.60;;;
79488;BMP180;68949;53.176;18.088;2023-05-10T01:34:23;100915.60;;;
79488;BMP180;68949;53.176;18.088;2023-05-10T01:37:02;100912.40;;;
79488;BMP180;68949;53.176;18.088;2023-05-10T01:42:29;100903.00;;;
79488;BMP180;68949;53.176;18.088;2023-05-10T01:45:07;100902.20;;;
79488;BMP180;68949;53.176;18.088;2023-05-10T01:47:42;100906.60;;;
79488;BMP180;68949;53.176;18.088;2023-05-10T01:50:21;100910.40;;;
79488;BMP180;68949;53.176;18.088;2023-05-10T01:52:56;100907.60;;;
79488;BMP180;68949;53.176;18.088;2023-05-10T01:55:28;100907.20;;;
79488;BMP180;68949;53.176;18.088;2023-05-10T01:58:08;100903.80;;;
79488;BMP180;68949;53.176;18.088;2023-05-10T02:00:40;100899.80;;;
79488;BMP180;68949;53.176;18.088;2023-05-10T02:03:10;100899.00;;;
79488;BMP180;68949;53.176;18.088;2023-05-10T02:05:40;100903.00;;;
79488;BMP180;68949;53.176;18.088;2023-05-10T02:08:09;100897.80;;;
79488;BMP180;68949;53.176;18.088;2023-05-10T02:10:39;100892.40;;;
79488;BMP180;68949;53.176;18.088;2023-05-10T02:13:07;100887.80;;;
79488;BMP180;68949;53.176;18.088;2023-05-10T02:15:36;100890.20;;;
79488;BMP180;68949;53.176;18.088;2023-05-10T02:18:06;100887.40;;;
79488;BMP180;68949;53.176;18.088;2023-05-10T02:20:34;100883.00;;;
79488;BMP180;68949;53.176;18.088;2023-05-10T02:23:03;100880.00;;;
79488;BMP180;68949;53.176;18.088;2023-05-10T02:25:32;100884.80;;;
79488;BMP180;68949;53.176;18.088;2023-05-10T02:28:04;100880.00;;;
79488;BMP180;68949;53.176;18.088;2023-05-10T02:30:34;100877.00;;;
79488;BMP180;68949;53.176;18.088;2023-05-10T02:33:04;100881.20;;;
79488;BMP180;68949;53.176;18.088;2023-05-10T02:35:32;100882.80;;;
79488;BMP180;68949;53.176;18.088;2023-05-10T02:38:01;100885.60;;;
79488;BMP180;68949;53.176;18.088;2023-05-10T02:40:30;100883.00;;;
79488;BMP180;68949;53.176;18.088;2023-05-10T02:43:01;100877.40;;;
79488;BMP180;68949;53.176;18.088;2023-05-10T02:45:31;100878.60;;;
79488;BMP180;68949;53.176;18.088;2023-05-10T02:47:59;100880.80;;;
79488;BMP180;68949;53.176;18.088;2023-05-10T02:50:30;100876.40;;;
79488;BMP180;68949;53.176;18.088;2023-05-10T02:53:10;100875.40;;;
79488;BMP180;68949;53.176;18.088;2023-05-10T02:55:40;100880.00;;;
79488;BMP180;68949;53.176;18.088;2023-05-10T02:58:08;100877.60;;;
79488;BMP180;68949;53.176;18.088;2023-05-10T03:00:35;100880.40;;;
79488;BMP180;68949;53.176;18.088;2023-05-10T03:03:03;100881.00;;;
79488;BMP180;68949;53.176;18.088;2023-05-10T03:05:29;100877.60;;;
79488;BMP180;68949;53.176;18.088;2023-05-10T03:07:59;100876.40;;;
79488;BMP180;68949;53.176;18.088;2023-05-10T03:10:31;100876.00;;;
79488;BMP180;68949;53.176;18.088;2023-05-10T03:13:29;100875.00;;;
79488;BMP180;68949;53.176;18.088;2023-05-10T03:16:15;100873.60;;;
79488;BMP180;68949;53.176;18.088;2023-05-10T03:19:20;100878.80;;;
79488;BMP180;68949;53.176;18.088;2023-05-10T03:21:53;100880.20;;;
79488;BMP180;68949;53.176;18.088;2023-05-10T03:24:23;100873.00;;;
79488;BMP180;68949;53.176;18.088;2023-05-10T03:26:56;100873.20;;;
79488;BMP180;68949;53.176;18.088;2023-05-10T03:29:27;100868.60;;;
79488;BMP180;68949;53.176;18.088;2023-05-10T03:31:54;100863.00;;;
79488;BMP180;68949;53.176;18.088;2023-05-10T03:34:25;100865.80;;;
79488;BMP180;68949;53.176;18.088;2023-05-10T03:36:52;100863.40;;;
79488;BMP180;68949;53.176;18.088;2023-05-10T03:39:19;100858.80;;;
79488;BMP180;68949;53.176;18.088;2023-05-10T03:41:51;100856.00;;;
79488;BMP180;68949;53.176;18.088;2023-05-10T03:44:17;100849.40;;;
79488;BMP180;68949;53.176;18.088;2023-05-10T03:46:44;100843.00;;;
79488;BMP180;68949;53.176;18.088;2023-05-10T03:49:11;100833.20;;;
79488;BMP180;68949;53.176;18.088;2023-05-10T03:51:38;100842.40;;;
79488;BMP180;68949;53.176;18.088;2023-05-10T03:54:05;100839.20;;;
79488;BMP180;68949;53.176;18.088;2023-05-10T03:56:31;100842.00;;;
79488;BMP180;68949;53.176;18.088;2023-05-10T03:59:00;100833.20;;;
79488;BMP180;68949;53.176;18.088;2023-05-10T04:01:27;100832.60;;;
79488;BMP180;68949;53.176;18.088;2023-05-10T04:03:53;100826.40;;;
79488;BMP180;68949;53.176;18.088;2023-05-10T04:06:20;100823.20;;;
79488;BMP180;68949;53.176;18.088;2023-05-10T04:08:47;100814.80;;;
79488;BMP180;68949;53.176;18.088;2023-05-10T04:11:14;100828.60;;;
79488;BMP180;68949;53.176;18.088;2023-05-10T04:13:41;100815.00;;;
79488;BMP180;68949;53.176;18.088;2023-05-10T04:16:09;100827.80;;;
79488;BMP180;68949;53.176;18.088;2023-05-10T04:18:36;100822.40;;;
79488;BMP180;68949;53.176;18.088;2023-05-10T04:21:03;100829.60;;;
79488;BMP180;68949;53.176;18.088;2023-05-10T04:23:29;100819.80;;;
79488;BMP180;68949;53.176;18.088;2023-05-10T04:26:01;100817.00;;;
79488;BMP180;68949;53.176;18.088;2023-05-10T04:28:27;100811.60;;;
79488;BMP180;68949;53.176;18.088;2023-05-10T04:31:04;100824.20;;;
79488;BMP180;68949;53.176;18.088;2023-05-10T04:33:32;100811.20;;;
79488;BMP180;68949;53.176;18.088;2023-05-10T04:36:00;100808.00;;;
79488;BMP180;68949;53.176;18.088;2023-05-10T04:38:27;100814.80;;;
79488;BMP180;68949;53.176;18.088;2023-05-10T04:40:54;100813.20;;;
79488;BMP180;68949;53.176;18.088;2023-05-10T04:43:21;100809.20;;;
79488;BMP180;68949;53.176;18.088;2023-05-10T04:45:48;100810.40;;;
79488;BMP180;68949;53.176;18.088;2023-05-10T04:48:14;100811.60;;;
79488;BMP180;68949;53.176;18.088;2023-05-10T04:50:41;100805.80;;;
79488;BMP180;68949;53.176;18.088;2023-05-10T04:53:08;100799.60;;;
79488;BMP180;68949;53.176;18.088;2023-05-10T04:55:35;100806.80;;;
79488;BMP180;68949;53.176;18.088;2023-05-10T04:58:02;100816.20;;;
79488;BMP180;68949;53.176;18.088;2023-05-10T05:00:29;100809.20;;;
79488;BMP180;68949;53.176;18.088;2023-05-10T05:02:55;100804.80;;;
79488;BMP180;68949;53.176;18.088;2023-05-10T05:05:22;100805.60;;;
79488;BMP180;68949;53.176;18.088;2023-05-10T05:07:50;100796.60;;;
79488;BMP180;68949;53.176;18.088;2023-05-10T05:10:17;100801.40;;;
79488;BMP180;68949;53.176;18.088;2023-05-10T05:12:43;100803.00;;;
79488;BMP180;68949;53.176;18.088;2023-05-10T05:15:10;100808.40;;;
79488;BMP180;68949;53.176;18.088;2023-05-10T05:17:37;100808.20;;;
79488;BMP180;68949;53.176;18.088;2023-05-10T05:20:05;100810.20;;;
79488;BMP180;68949;53.176;18.088;2023-05-10T05:22:32;100811.40;;;
79488;BMP180;68949;53.176;18.088;2023-05-10T05:24:58;100807.80;;;
79488;BMP180;68949;53.176;18.088;2023-05-10T05:27:25;100807.20;;;
79488;BMP180;68949;53.176;18.088;2023-05-10T05:29:59;100806.20;;;
79488;BMP180;68949;53.176;18.088;2023-05-10T05:32:26;100791.00;;;
79488;BMP180;68949;53.176;18.088;2023-05-10T05:34:52;100794.40;;;
79488;BMP180;68949;53.176;18.088;2023-05-10T05:37:24;100801.40;;;
79488;BMP180;68949;53.176;18.088;2023-05-10T05:39:51;100796.20;;;
79488;BMP180;68949;53.176;18.088;2023-05-10T05:42:18;100805.40;;;
79488;BMP180;68949;53.176;18.088;2023-05-10T05:44:45;100796.00;;;
79488;BMP180;68949;53.176;18.088;2023-05-10T05:47:12;100795.20;;;
79488;BMP180;68949;53.176;18.088;2023-05-10T05:49:38;100800.60;;;
79488;BMP180;68949;53.176;18.088;2023-05-10T05:52:06;100797.80;;;
79488;BMP180;68949;53.176;18.088;2023-05-10T05:54:32;100799.80;;;
79488;BMP180;68949;53.176;18.088;2023-05-10T05:57:01;100803.00;;;
79488;BMP180;68949;53.176;18.088;2023-05-10T05:59:28;100794.20;;;
79488;BMP180;68949;53.176;18.088;2023-05-10T06:01:55;100797.40;;;
79488;BMP180;68949;53.176;18.088;2023-05-10T06:04:22;100797.80;;;
79488;BMP180;68949;53.176;18.088;2023-05-10T06:06:48;100805.20;;;
79488;BMP180;68949;53.176;18.088;2023-05-10T06:09:15;100798.60;;;
79488;BMP180;68949;53.176;18.088;2023-05-10T06:11:42;100800.60;;;
79488;BMP180;68949;53.176;18.088;2023-05-10T06:14:09;100806.60;;;
79488;BMP180;68949;53.176;18.088;2023-05-10T06:16:36;100809.80;;;
79488;BMP180;68949;53.176;18.088;2023-05-10T06:19:04;100806.00;;;
79488;BMP180;68949;53.176;18.088;2023-05-10T06:21:31;100808.60;;;
79488;BMP180;68949;53.176;18.088;2023-05-10T06:23:58;100812.40;;;
79488;BMP180;68949;53.176;18.088;2023-05-10T06:26:24;100807.40;;;
79488;BMP180;68949;53.176;18.088;2023-05-10T06:28:51;100801.40;;;
79488;BMP180;68949;53.176;18.088;2023-05-10T06:31:18;100804.60;;;
79488;BMP180;68949;53.176;18.088;2023-05-10T06:33:45;100802.80;;;
79488;BMP180;68949;53.176;18.088;2023-05-10T06:36:12;100794.80;;;
79488;BMP180;68949;53.176;18.088;2023-05-10T06:38:40;100812.40;;;
79488;BMP180;68949;53.176;18.088;2023-05-10T06:41:06;100802.20;;;
79488;BMP180;68949;53.176;18.088;2023-05-10T06:43:33;100804.40;;;
79488;BMP180;68949;53.176;18.088;2023-05-10T06:46:00;100794.00;;;
79488;BMP180;68949;53.176;18.088;2023-05-10T06:48:26;100795.40;;;
79488;BMP180;68949;53.176;18.088;2023-05-10T06:50:54;100785.80;;;
79488;BMP180;68949;53.176;18.088;2023-05-10T06:53:20;100782.80;;;
79488;BMP180;68949;53.176;18.088;2023-05-10T06:55:49;100772.40;;;
79488;BMP180;68949;53.176;18.088;2023-05-10T06:58:15;100787.40;;;
79488;BMP180;68949;53.176;18.088;2023-05-10T07:00:42;100795.00;;;
79488;BMP180;68949;53.176;18.088;2023-05-10T07:03:10;100795.00;;;
79488;BMP180;68949;53.176;18.088;2023-05-10T07:05:37;100798.80;;;
79488;BMP180;68949;53.176;18.088;2023-05-10T07:08:03;100806.00;;;
79488;BMP180;68949;53.176;18.088;2023-05-10T07:10:30;100787.20;;;
79488;BMP180;68949;53.176;18.088;2023-05-10T07:12:57;100781.60;;;
79488;BMP180;68949;53.176;18.088;2023-05-10T07:15:23;100789.40;;;
79488;BMP180;68949;53.176;18.088;2023-05-10T07:17:50;100784.00;;;
79488;BMP180;68949;53.176;18.088;2023-05-10T07:20:18;100786.20;;;
79488;BMP180;68949;53.176;18.088;2023-05-10T07:22:45;100773.80;;;
79488;BMP180;68949;53.176;18.088;2023-05-10T07:25:12;100785.80;;;
79488;BMP180;68949;53.176;18.088;2023-05-10T07:27:38;100777.20;;;
79488;BMP180;68949;53.176;18.088;2023-05-10T07:30:06;100774.20;;;
79488;BMP180;68949;53.176;18.088;2023-05-10T07:32:33;100773.00;;;
79488;BMP180;68949;53.176;18.088;2023-05-10T07:35:00;100790.60;;;
79488;BMP180;68949;53.176;18.088;2023-05-10T07:37:27;100783.80;;;
79488;BMP180;68949;53.176;18.088;2023-05-10T07:39:53;100792.40;;;
79488;BMP180;68949;53.176;18.088;2023-05-10T07:42:20;100797.20;;;
79488;BMP180;68949;53.176;18.088;2023-05-10T07:44:46;100777.20;;;
79488;BMP180;68949;53.176;18.088;2023-05-10T07:47:13;100782.00;;;
79488;BMP180;68949;53.176;18.088;2023-05-10T07:49:40;100785.60;;;
79488;BMP180;68949;53.176;18.088;2023-05-10T07:52:07;100798.60;;;
79488;BMP180;68949;53.176;18.088;2023-05-10T07:54:33;100784.40;;;
79488;BMP180;68949;53.176;18.088;2023-05-10T07:57:01;100778.80;;;
79488;BMP180;68949;53.176;18.088;2023-05-10T07:59:27;100774.40;;;
79488;BMP180;68949;53.176;18.088;2023-05-10T08:01:54;100792.80;;;
79488;BMP180;68949;53.176;18.088;2023-05-10T08:04:21;100765.60;;;
79488;BMP180;68949;53.176;18.088;2023-05-10T08:06:47;100779.40;;;
79488;BMP180;68949;53.176;18.088;2023-05-10T08:09:14;100787.40;;;
79488;BMP180;68949;53.176;18.088;2023-05-10T08:11:41;100763.80;;;
79488;BMP180;68949;53.176;18.088;2023-05-10T08:14:07;100774.80;;;
79488;BMP180;68949;53.176;18.088;2023-05-10T08:16:34;100770.00;;;
79488;BMP180;68949;53.176;18.088;2023-05-10T08:19:05;100759.40;;;
79488;BMP180;68949;53.176;18.088;2023-05-10T08:21:32;100762.00;;;
79488;BMP180;68949;53.176;18.088;2023-05-10T08:23:59;100763.80;;;
79488;BMP180;68949;53.176;18.088;2023-05-10T08:26:25;100763.40;;;
79488;BMP180;68949;53.176;18.088;2023-05-10T08:28:52;100770.20;;;
79488;BMP180;68949;53.176;18.088;2023-05-10T08:31:19;100784.80;;;
79488;BMP180;68949;53.176;18.088;2023-05-10T08:33:46;100772.60;;;
79488;BMP180;68949;53.176;18.088;2023-05-10T08:36:13;100772.20;;;
79488;BMP180;68949;53.176;18.088;2023-05-10T08:38:41;100762.00;;;
79488;BMP180;68949;53.176;18.088;2023-05-10T08:41:09;100769.60;;;
79488;BMP180;68949;53.176;18.088;2023-05-10T08:43:37;100769.40;;;
79488;BMP180;68949;53.176;18.088;2023-05-10T08:46:07;100743.80;;;
79488;BMP180;68949;53.176;18.088;2023-05-10T08:48:36;100753.20;;;
79488;BMP180;68949;53.176;18.088;2023-05-10T08:51:09;100752.60;;;
79488;BMP180;68949;53.176;18.088;2023-05-10T08:53:39;100762.60;;;
79488;BMP180;68949;53.176;18.088;2023-05-10T08:56:07;100768.80;;;
79488;BMP180;68949;53.176;18.088;2023-05-10T08:58:33;100778.40;;;
79488;BMP180;68949;53.176;18.088;2023-05-10T09:01:00;100756.40;;;
79488;BMP180;68949;53.176;18.088;2023-05-10T09:03:27;100780.80;;;
79488;BMP180;68949;53.176;18.088;2023-05-10T09:05:54;100787.20;;;
79488;BMP180;68949;53.176;18.088;2023-05-10T09:08:26;100759.00;;;
79488;BMP180;68949;53.176;18.088;2023-05-10T09:10:58;100760.80;;;
79488;BMP180;68949;53.176;18.088;2023-05-10T09:13:31;100772.60;;;
79488;BMP180;68949;53.176;18.088;2023-05-10T09:15:58;100767.80;;;
79488;BMP180;68949;53.176;18.088;2023-05-10T09:18:25;100761.40;;;
79488;BMP180;68949;53.176;18.088;2023-05-10T09:20:52;100768.80;;;
79488;BMP180;68949;53.176;18.088;2023-05-10T09:23:19;100779.60;;;
79488;BMP180;68949;53.176;18.088;2023-05-10T09:25:46;100790.00;;;
79488;BMP180;68949;53.176;18.088;2023-05-10T09:28:13;100757.40;;;
79488;BMP180;68949;53.176;18.088;2023-05-10T09:30:40;100761.80;;;
79488;BMP180;68949;53.176;18.088;2023-05-10T09:33:06;100766.60;;;
79488;BMP180;68949;53.176;18.088;2023-05-10T09:35:34;100766.20;;;
79488;BMP180;68949;53.176;18.088;2023-05-10T09:38:04;100763.60;;;
79488;BMP180;68949;53.176;18.088;2023-05-10T09:40:32;100770.40;;;
79488;BMP180;68949;53.176;18.088;2023-05-10T09:43:17;100757.20;;;
79488;BMP180;68949;53.176;18.088;2023-05-10T09:45:48;100763.80;;;
79488;BMP180;68949;53.176;18.088;2023-05-10T09:48:16;100742.40;;;
79488;BMP180;68949;53.176;18.088;2023-05-10T09:50:43;100765.80;;;
79488;BMP180;68949;53.176;18.088;2023-05-10T09:53:14;100753.40;;;
79488;BMP180;68949;53.176;18.088;2023-05-10T09:55:46;100748.00;;;
79488;BMP180;68949;53.176;18.088;2023-05-10T09:58:14;100756.00;;;
79488;BMP180;68949;53.176;18.088;2023-05-10T10:00:43;100781.00;;;
79488;BMP180;68949;53.176;18.088;2023-05-10T10:03:16;100753.80;;;
79488;BMP180;68949;53.176;18.088;2023-05-10T10:05:45;100754.00;;;
79488;BMP180;68949;53.176;18.088;2023-05-10T10:08:13;100760.80;;;
79488;BMP180;68949;53.176;18.088;2023-05-10T10:10:41;100742.00;;;
79488;BMP180;68949;53.176;18.088;2023-05-10T10:13:08;100744.00;;;
79488;BMP180;68949;53.176;18.088;2023-05-10T10:15:35;100742.80;;;
79488;BMP180;68949;53.176;18.088;2023-05-10T10:18:03;100744.80;;;
79488;BMP180;68949;53.176;18.088;2023-05-10T10:20:32;100744.40;;;
79488;BMP180;68949;53.176;18.088;2023-05-10T10:22:59;100760.40;;;
79488;BMP180;68949;53.176;18.088;2023-05-10T10:25:26;100752.80;;;
79488;BMP180;68949;53.176;18.088;2023-05-10T10:30:46;100725.40;;;
79488;BMP180;68949;53.176;18.088;2023-05-10T10:36:15;100738.00;;;
79488;BMP180;68949;53.176;18.088;2023-05-10T10:44:26;100731.60;;;
79488;BMP180;68949;53.176;18.088;2023-05-10T10:47:21;100742.20;;;
79488;BMP180;68949;53.176;18.088;2023-05-10T10:52:31;100727.00;;;
79488;BMP180;68949;53.176;18.088;2023-05-10T10:55:05;100732.80;;;
79488;BMP180;68949;53.176;18.088;2023-05-10T10:57:44;100733.80;;;
79488;BMP180;68949;53.176;18.088;2023-05-10T11:00:26;100734.40;;;
79488;BMP180;68949;53.176;18.088;2023-05-10T11:03:06;100738.20;;;
79488;BMP180;68949;53.176;18.088;2023-05-10T11:05:37;100733.80;;;
79488;BMP180;68949;53.176;18.088;2023-05-10T11:08:27;100724.20;;;
79488;BMP180;68949;53.176;18.088;2023-05-10T11:13:47;100736.60;;;
79488;BMP180;68949;53.176;18.088;2023-05-10T11:16:17;100730.80;;;
79488;BMP180;68949;53.176;18.088;2023-05-10T11:21:20;100737.20;;;
79488;BMP180;68949;53.176;18.088;2023-05-10T11:23:54;100721.60;;;
79488;BMP180;68949;53.176;18.088;2023-05-10T11:26:30;100722.00;;;
79488;BMP180;68949;53.176;18.088;2023-05-10T11:28:57;100720.20;;;
79488;BMP180;68949;53.176;18.088;2023-05-10T11:31:28;100717.20;;;
79488;BMP180;68949;53.176;18.088;2023-05-10T11:34:00;100703.40;;;
79488;BMP180;68949;53.176;18.088;2023-05-10T11:36:35;100700.40;;;
79488;BMP180;68949;53.176;18.088;2023-05-10T11:39:03;100712.00;;;
79488;BMP180;68949;53.176;18.088;2023-05-10T11:41:31;100714.00;;;
79488;BMP180;68949;53.176;18.088;2023-05-10T11:43:58;100703.00;;;
79488;BMP180;68949;53.176;18.088;2023-05-10T11:46:27;100700.20;;;
79488;BMP180;68949;53.176;18.088;2023-05-10T11:48:59;100710.60;;;
79488;BMP180;68949;53.176;18.088;2023-05-10T11:51:28;100712.80;;;
79488;BMP180;68949;53.176;18.088;2023-05-10T11:53:56;100706.40;;;
79488;BMP180;68949;53.176;18.088;2023-05-10T11:56:23;100714.20;;;
79488;BMP180;68949;53.176;18.088;2023-05-10T11:58:57;100707.00;;;
79488;BMP180;68949;53.176;18.088;2023-05-10T12:01:28;100690.40;;;
79488;BMP180;68949;53.176;18.088;2023-05-10T12:03:58;100708.80;;;
79488;BMP180;68949;53.176;18.088;2023-05-10T12:06:32;100698.00;;;
79488;BMP180;68949;53.176;18.088;2023-05-10T12:09:19;100704.00;;;
79488;BMP180;68949;53.176;18.088;2023-05-10T12:11:46;100702.40;;;
79488;BMP180;68949;53.176;18.088;2023-05-10T12:14:13;100685.00;;;
79488;BMP180;68949;53.176;18.088;2023-05-10T12:16:43;100678.80;;;
79488;BMP180;68949;53.176;18.088;2023-05-10T12:19:10;100685.60;;;
79488;BMP180;68949;53.176;18.088;2023-05-10T12:21:37;100685.00;;;
79488;BMP180;68949;53.176;18.088;2023-05-10T12:24:05;100691.20;;;
79488;BMP180;68949;53.176;18.088;2023-05-10T12:26:32;100683.40;;;
79488;BMP180;68949;53.176;18.088;2023-05-10T12:29:19;100691.60;;;
79488;BMP180;68949;53.176;18.088;2023-05-10T12:31:51;100709.80;;;
79488;BMP180;68949;53.176;18.088;2023-05-10T12:34:26;100681.20;;;
79488;BMP180;68949;53.176;18.088;2023-05-10T12:36:54;100686.60;;;
79488;BMP180;68949;53.176;18.088;2023-05-10T12:39:21;100695.80;;;
79488;BMP180;68949;53.176;18.088;2023-05-10T12:41:48;100722.60;;;
79488;BMP180;68949;53.176;18.088;2023-05-10T12:44:15;100690.20;;;
79488;BMP180;68949;53.176;18.088;2023-05-10T12:46:42;100681.00;;;
79488;BMP180;68949;53.176;18.088;2023-05-10T12:49:08;100715.40;;;
79488;BMP180;68949;53.176;18.088;2023-05-10T12:51:35;100716.60;;;
79488;BMP180;68949;53.176;18.088;2023-05-10T12:54:02;100703.40;;;
79488;BMP180;68949;53.176;18.088;2023-05-10T12:56:30;100674.40;;;
79488;BMP180;68949;53.176;18.088;2023-05-10T12:58:57;100689.60;;;
79488;BMP180;68949;53.176;18.088;2023-05-10T13:01:23;100679.20;;;
79488;BMP180;68949;53.176;18.088;2023-05-10T13:03:50;100682.00;;;
79488;BMP180;68949;53.176;18.088;2023-05-10T13:06:17;100681.80;;;
79488;BMP180;68949;53.176;18.088;2023-05-10T13:08:43;100673.80;;;
79488;BMP180;68949;53.176;18.088;2023-05-10T13:11:10;100672.20;;;
79488;BMP180;68949;53.176;18.088;2023-05-10T13:13:37;100684.40;;;
79488;BMP180;68949;53.176;18.088;2023-05-10T13:16:04;100683.80;;;
79488;BMP180;68949;53.176;18.088;2023-05-10T13:18:30;100657.80;;;
79488;BMP180;68949;53.176;18.088;2023-05-10T13:20:57;100674.00;;;
79488;BMP180;68949;53.176;18.088;2023-05-10T13:23:24;100690.40;;;
79488;BMP180;68949;53.176;18.088;2023-05-10T13:25:51;100692.20;;;
79488;BMP180;68949;53.176;18.088;2023-05-10T13:28:17;100684.00;;;
79488;BMP180;68949;53.176;18.088;2023-05-10T13:30:44;100673.40;;;
79488;BMP180;68949;53.176;18.088;2023-05-10T13:33:11;100663.60;;;
79488;BMP180;68949;53.176;18.088;2023-05-10T13:35:38;100664.80;;;
79488;BMP180;68949;53.176;18.088;2023-05-10T13:38:05;100658.80;;;
79488;BMP180;68949;53.176;18.088;2023-05-10T13:40:34;100653.80;;;
79488;BMP180;68949;53.176;18.088;2023-05-10T13:43:02;100652.80;;;
79488;BMP180;68949;53.176;18.088;2023-05-10T13:45:29;100653.80;;;
79488;BMP180;68949;53.176;18.088;2023-05-10T13:47:56;100648.60;;;
79488;BMP180;68949;53.176;18.088;2023-05-10T13:50:22;100660.80;;;
79488;BMP180;68949;53.176;18.088;2023-05-10T13:52:49;100664.20;;;
79488;BMP180;68949;53.176;18.088;2023-05-10T13:55:16;100657.40;;;
79488;BMP180;68949;53.176;18.088;2023-05-10T13:57:43;100662.40;;;
79488;BMP180;68949;53.176;18.088;2023-05-10T14:00:10;100660.20;;;
79488;BMP180;68949;53.176;18.088;2023-05-10T14:02:37;100665.20;;;
79488;BMP180;68949;53.176;18.088;2023-05-10T14:05:04;100672.40;;;
79488;BMP180;68949;53.176;18.088;2023-05-10T14:07:31;100674.60;;;
79488;BMP180;68949;53.176;18.088;2023-05-10T14:09:58;100662.40;;;
79488;BMP180;68949;53.176;18.088;2023-05-10T14:12:25;100663.20;;;
79488;BMP180;68949;53.176;18.088;2023-05-10T14:14:52;100672.20;;;
79488;BMP180;68949;53.176;18.088;2023-05-10T14:17:18;100662.00;;;
79488;BMP180;68949;53.176;18.088;2023-05-10T14:19:45;100655.00;;;
79488;BMP180;68949;53.176;18.088;2023-05-10T14:22:12;100660.20;;;
79488;BMP180;68949;53.176;18.088;2023-05-10T14:24:39;100667.40;;;
79488;BMP180;68949;53.176;18.088;2023-05-10T14:27:05;100639.40;;;
79488;BMP180;68949;53.176;18.088;2023-05-10T14:29:35;100636.20;;;
79488;BMP180;68949;53.176;18.088;2023-05-10T14:32:02;100653.40;;;
79488;BMP180;68949;53.176;18.088;2023-05-10T14:34:29;100653.40;;;
79488;BMP180;68949;53.176;18.088;2023-05-10T14:36:56;100648.20;;;
79488;BMP180;68949;53.176;18.088;2023-05-10T14:39:22;100655.20;;;
79488;BMP180;68949;53.176;18.088;2023-05-10T14:41:49;100661.60;;;
79488;BMP180;68949;53.176;18.088;2023-05-10T14:44:17;100670.40;;;
79488;BMP180;68949;53.176;18.088;2023-05-10T14:46:45;100661.00;;;
79488;BMP180;68949;53.176;18.088;2023-05-10T14:49:11;100655.00;;;
79488;BMP180;68949;53.176;18.088;2023-05-10T14:51:38;100652.60;;;
79488;BMP180;68949;53.176;18.088;2023-05-10T14:54:05;100648.40;;;
79488;BMP180;68949;53.176;18.088;2023-05-10T14:56:32;100645.00;;;
79488;BMP180;68949;53.176;18.088;2023-05-10T14:58:58;100651.40;;;
79488;BMP180;68949;53.176;18.088;2023-05-10T15:01:26;100650.20;;;
79488;BMP180;68949;53.176;18.088;2023-05-10T15:03:53;100649.20;;;
79488;BMP180;68949;53.176;18.088;2023-05-10T15:06:30;100642.60;;;
79488;BMP180;68949;53.176;18.088;2023-05-10T15:08:58;100654.20;;;
79488;BMP180;68949;53.176;18.088;2023-05-10T15:11:24;100645.00;;;
79488;BMP180;68949;53.176;18.088;2023-05-10T15:13:52;100650.80;;;
79488;BMP180;68949;53.176;18.088;2023-05-10T15:16:18;100639.80;;;
79488;BMP180;68949;53.176;18.088;2023-05-10T15:18:45;100648.00;;;
79488;BMP180;68949;53.176;18.088;2023-05-10T15:21:12;100650.00;;;
79488;BMP180;68949;53.176;18.088;2023-05-10T15:23:39;100644.20;;;
79488;BMP180;68949;53.176;18.088;2023-05-10T15:26:06;100642.20;;;
79488;BMP180;68949;53.176;18.088;2023-05-10T15:28:33;100651.40;;;